Fort Collins, CO

2:16 AM MST on December 11, 2016 (GMT -0700)
Fort Collins-Loveland Municipal

Weather History for KFNL - October, 2014

Change the Weather History Date:

Thursday, October 30, 2014

  Actual Average Record
Temperature  
Mean Temperature 52 °F -  
Max Temperature 62 °F - 75 °F (2007)
Min Temperature 41 °F - 15 °F (2002)
Degree Days  
Heating Degree Days 14    
Month to date heating degree days  
Cooling Degree Days 0    
Month to date cooling degree days  
Growing Degree Days 2 (Base 50)    
Moisture  
Dew Point 27 °F    
Average Humidity 40    
Maximum Humidity 61    
Minimum Humidity 27    
Precipitation  
Precipitation 0.00 in - 0.24 in (2005)
Sea Level Pressure  
Sea Level Pressure 30.35 in    
Wind  
Wind Speed 5 mph (SSE)    
Max Wind Speed 13 mph    
Max Gust Speed -    
Visibility 10 miles    
Events      
T = Trace of Precipitation, MM = Missing Value Source: NWS Daily Summary

Daily Weather History Graph

Daily Weather History Graph

Search for Another Location

Airport or City:

Trip Planner

Search our weather history database for the weather conditions in past years. The results will help you decide how hot, cold, wet, or windy it might be!

Date:

Astronomy

Oct. 30, 2014 Rise Set
Actual Time 7:27 AM MDT 5:59 PM MDT
Civil Twilight 6:59 AM MDT 6:27 PM MDT
Nautical Twilight 6:27 AM MDT 6:59 PM MDT
Astronomical Twilight 5:55 AM MDT 7:31 PM MDT
Moon 1:33 PM MDT (10/30) No Moon Set
Length of Visible Light 11h 27m
Length of Day
10h 31m
Waxing Crescent, 46% of the Moon is Illuminated
Oct 30
Waxing Crescent
Oct 30
First Quarter
Nov 6
Full
Nov 14
Last Quarter
Nov 22
New

Hourly Weather History & Observations

Time (MDT) Temp. Windchill Dew Point Humidity Pressure Visibility Wind Dir Wind Speed Gust Speed Precip Events Conditions
12:15 AM 48.2 °F - 26.6 °F 43% 30.21 in 10.0 mi Calm Calm - N/A   Clear
12:35 AM 53.6 °F - 26.6 °F 35% 30.21 in 10.0 mi ENE 10.4 mph - N/A   Clear
12:55 AM 53.6 °F - 28.4 °F 38% 30.22 in 10.0 mi North 5.8 mph - N/A   Clear
1:15 AM 51.8 °F - 28.4 °F 41% 30.23 in 10.0 mi NW 5.8 mph - N/A   Clear
1:35 AM 48.2 °F - 26.6 °F 43% 30.23 in 10.0 mi NNW 10.4 mph - N/A   Partly Cloudy
1:55 AM 48.2 °F - 26.6 °F 43% 30.23 in 10.0 mi North 12.7 mph - N/A   Clear
2:15 AM 48.2 °F - 26.6 °F 43% 30.24 in 10.0 mi North 11.5 mph - N/A   Clear
2:35 AM 48.2 °F - 26.6 °F 43% 30.25 in 10.0 mi North 11.5 mph - N/A   Clear
2:55 AM 48.2 °F - 26.6 °F 43% 30.26 in 10.0 mi NNW 6.9 mph - N/A   Clear
3:15 AM 46.4 °F - 26.6 °F 46% 30.26 in 10.0 mi Calm Calm - N/A   Clear
3:35 AM 46.4 °F - 26.6 °F 46% 30.28 in 10.0 mi Calm Calm - N/A   Clear
3:55 AM 44.6 °F 41.4 °F 26.6 °F 49% 30.29 in 10.0 mi WSW 5.8 mph - N/A   Clear
4:15 AM 44.6 °F 42.2 °F 26.6 °F 49% 30.30 in 10.0 mi NW 4.6 mph - N/A   Clear
4:35 AM 44.6 °F - 26.6 °F 49% 30.31 in 10.0 mi Calm Calm - N/A   Clear
4:55 AM 46.4 °F - 26.6 °F 46% 30.32 in 10.0 mi Calm Calm - N/A   Clear
5:15 AM 46.4 °F 45.2 °F 24.8 °F 43% 30.33 in 10.0 mi North 3.5 mph - N/A   Clear
5:35 AM 46.4 °F 44.3 °F 24.8 °F 43% 30.33 in 10.0 mi North 4.6 mph - N/A   Clear
5:55 AM 46.4 °F 45.2 °F 24.8 °F 43% 30.34 in 10.0 mi North 3.5 mph - N/A   Clear
6:15 AM 46.4 °F - 24.8 °F 43% 30.35 in 10.0 mi Calm Calm - N/A   Clear
6:35 AM 42.8 °F 40.1 °F 23.0 °F 46% 30.35 in 10.0 mi South 4.6 mph - N/A   Clear
6:55 AM 41.0 °F - 26.6 °F 57% 30.36 in 10.0 mi Calm Calm - N/A   Clear
7:15 AM 41.0 °F 38.0 °F 28.4 °F 61% 30.36 in 10.0 mi South 4.6 mph - N/A   Clear
7:35 AM 42.8 °F 40.1 °F 28.4 °F 57% 30.37 in 10.0 mi South 4.6 mph - N/A   Clear
7:55 AM 41.0 °F - 26.6 °F 57% 30.38 in 10.0 mi Calm Calm - N/A   Clear
8:15 AM 42.8 °F - 28.4 °F 57% 30.38 in 10.0 mi Calm Calm - N/A   Clear
8:35 AM 44.6 °F - 30.2 °F 57% 30.39 in 10.0 mi Calm Calm - N/A   Clear
8:55 AM 46.4 °F 45.2 °F 32.0 °F 57% 30.39 in 10.0 mi SSW 3.5 mph - N/A   Clear
9:15 AM 48.2 °F - 30.2 °F 50% 30.40 in 10.0 mi South 3.5 mph - N/A   Clear
9:35 AM 51.8 °F - 28.4 °F 41% 30.39 in 10.0 mi South 4.6 mph - N/A   Clear
9:55 AM 51.8 °F - 28.4 °F 41% 30.39 in 10.0 mi South 6.9 mph - N/A   Clear
10:15 AM 53.6 °F - 28.4 °F 38% 30.40 in 10.0 mi SSE 8.1 mph - N/A   Clear
10:35 AM 53.6 °F - 26.6 °F 35% 30.39 in 10.0 mi South 4.6 mph - N/A   Clear
10:55 AM 55.4 °F - 26.6 °F 33% 30.39 in 10.0 mi SSE 9.2 mph - N/A   Clear
11:15 AM 55.4 °F - 26.6 °F 33% 30.39 in 10.0 mi South 6.9 mph - N/A   Clear
11:35 AM 57.2 °F - 26.6 °F 31% 30.38 in 10.0 mi ESE 5.8 mph - N/A   Clear
11:55 AM 57.2 °F - 28.4 °F 33% 30.38 in 10.0 mi ESE 6.9 mph - N/A   Clear
12:15 PM 57.2 °F - 28.4 °F 33% 30.37 in 10.0 mi SE 8.1 mph - N/A   Clear
12:35 PM 57.2 °F - 26.6 °F 31% 30.37 in 10.0 mi South 6.9 mph - N/A   Clear
12:55 PM 59.0 °F - 26.6 °F 29% 30.36 in 10.0 mi South 8.1 mph - N/A   Clear
1:15 PM 60.8 °F - 28.4 °F 29% 30.35 in 10.0 mi South 8.1 mph - N/A   Clear
1:35 PM 60.8 °F - 28.4 °F 29% 30.35 in 10.0 mi South 5.8 mph - N/A   Clear
1:55 PM 60.8 °F - 26.6 °F 27% 30.33 in 10.0 mi SSE 6.9 mph - N/A   Clear
2:15 PM 60.8 °F - 28.4 °F 29% 30.33 in 10.0 mi SSW 5.8 mph - N/A   Clear
2:35 PM 62.6 °F - 28.4 °F 27% 30.33 in 10.0 mi South 6.9 mph - N/A   Clear
2:55 PM 60.8 °F - 28.4 °F 29% 30.33 in 10.0 mi SSW 6.9 mph - N/A   Clear
3:15 PM 60.8 °F - 26.6 °F 27% 30.33 in 10.0 mi South 6.9 mph - N/A   Clear
3:35 PM 60.8 °F - 28.4 °F 29% 30.33 in 10.0 mi SW 4.6 mph - N/A   Clear
3:55 PM 60.8 °F - 28.4 °F 29% 30.33 in 10.0 mi SSE 5.8 mph - N/A   Clear
4:15 PM 60.8 °F - 28.4 °F 29% 30.33 in 10.0 mi SW 3.5 mph - N/A   Clear
4:35 PM 60.8 °F - 28.4 °F 29% 30.33 in 10.0 mi South 5.8 mph - N/A   Clear
4:55 PM 60.8 °F - 28.4 °F 29% 30.34 in 10.0 mi SSW 4.6 mph - N/A   Clear
5:15 PM 60.8 °F - 28.4 °F 29% 30.34 in 10.0 mi South 4.6 mph - N/A   Clear
5:35 PM 57.2 °F - 28.4 °F 33% 30.34 in 10.0 mi South 4.6 mph - N/A   Clear
5:55 PM 55.4 °F - 28.4 °F 36% 30.35 in 10.0 mi SSE 4.6 mph - N/A   Clear
6:15 PM 55.4 °F - 28.4 °F 36% 30.35 in 10.0 mi SSE 4.6 mph - N/A   Clear
6:35 PM 53.6 °F - 28.4 °F 38% 30.36 in 10.0 mi SE 5.8 mph - N/A   Clear
6:55 PM 53.6 °F - 26.6 °F 35% 30.37 in 10.0 mi ESE 5.8 mph - N/A   Clear
7:15 PM 51.8 °F - 26.6 °F 38% 30.38 in 10.0 mi ESE 6.9 mph - N/A   Clear
7:35 PM 51.8 °F - 26.6 °F 38% 30.38 in 10.0 mi ESE 9.2 mph - N/A   Clear
7:55 PM 51.8 °F - 26.6 °F 38% 30.38 in 10.0 mi ESE 10.4 mph - N/A   Clear
8:15 PM 51.8 °F - 26.6 °F 38% 30.39 in 10.0 mi ESE 10.4 mph - N/A   Clear
8:35 PM 50.0 °F - 26.6 °F 40% 30.39 in 10.0 mi ESE 9.2 mph - N/A   Clear
8:55 PM 48.2 °F - 24.8 °F 40% 30.40 in 10.0 mi WSW 4.6 mph - N/A   Clear
9:15 PM 46.4 °F 43.5 °F 28.4 °F 50% 30.40 in 10.0 mi SW 5.8 mph - N/A   Clear
9:35 PM 48.2 °F - 28.4 °F 46% 30.41 in 10.0 mi SSW 3.5 mph - N/A   Clear
9:55 PM 48.2 °F - 26.6 °F 43% 30.42 in 10.0 mi South 5.8 mph - N/A   Clear
10:15 PM 46.4 °F 44.3 °F 28.4 °F 50% 30.42 in 10.0 mi South 4.6 mph - N/A   Clear
10:35 PM 46.4 °F - 26.6 °F 46% 30.42 in 10.0 mi Calm Calm - N/A   Clear
10:55 PM 46.4 °F 44.3 °F 26.6 °F 46% 30.43 in 10.0 mi ESE 4.6 mph - N/A   Clear
11:15 PM 46.4 °F 43.5 °F 24.8 °F 43% 30.42 in 10.0 mi ESE 5.8 mph - N/A   Clear
11:35 PM 42.8 °F 38.6 °F 24.8 °F 49% 30.42 in 10.0 mi East 6.9 mph - N/A   Clear
11:55 PM 44.6 °F 41.4 °F 26.6 °F 49% 30.42 in 10.0 mi ESE 5.8 mph - N/A   Clear